createdAt,value
2018-09-22T00:01:52.437Z,10.70
2018-09-22T00:04:20.785Z,10.60
2018-09-22T00:06:49.393Z,10.60
2018-09-22T00:09:17.897Z,10.50
2018-09-22T00:11:46.500Z,10.50
2018-09-22T00:14:14.820Z,10.50
2018-09-22T00:16:43.298Z,10.40
2018-09-22T00:19:11.689Z,10.30
2018-09-22T00:21:40.253Z,10.30
2018-09-22T00:24:08.590Z,10.20
2018-09-22T00:26:37.014Z,10.20
2018-09-22T00:29:05.597Z,10.10
2018-09-22T00:31:33.740Z,10.10
2018-09-22T00:34:01.966Z,10.10
2018-09-22T00:36:30.397Z,10.00
2018-09-22T00:38:58.799Z,10.00
2018-09-22T00:41:27.301Z,10.00
2018-09-22T00:43:55.681Z,10.00
2018-09-22T00:46:23.947Z,9.90
2018-09-22T00:48:52.679Z,9.90
2018-09-22T00:51:21.102Z,9.90
2018-09-22T00:53:49.594Z,9.80
2018-09-22T00:56:17.981Z,9.80
2018-09-22T00:58:46.362Z,9.70
2018-09-22T01:01:14.800Z,9.70
2018-09-22T01:03:43.134Z,9.70
2018-09-22T01:06:11.384Z,9.60
2018-09-22T01:08:39.844Z,9.60
2018-09-22T01:11:08.782Z,9.60
2018-09-22T01:13:37.213Z,9.60
2018-09-22T01:16:05.914Z,9.60
2018-09-22T01:18:34.315Z,9.60
2018-09-22T01:21:02.707Z,9.60
2018-09-22T01:23:31.508Z,9.60
2018-09-22T01:25:59.805Z,9.50
2018-09-22T01:28:28.206Z,9.50
2018-09-22T01:30:56.515Z,9.50
2018-09-22T01:33:24.889Z,9.40
2018-09-22T01:35:53.216Z,9.40
2018-09-22T01:38:21.595Z,9.40
2018-09-22T01:40:50.022Z,9.40
2018-09-22T01:43:18.441Z,9.40
2018-09-22T01:45:46.948Z,9.40
2018-09-22T01:48:15.632Z,9.40
2018-09-22T01:50:43.918Z,9.40
2018-09-22T01:53:12.322Z,9.40
2018-09-22T01:55:40.675Z,9.40
2018-09-22T01:58:09.323Z,9.40
2018-09-22T02:00:37.591Z,9.30
2018-09-22T02:03:06.324Z,9.30
2018-09-22T02:05:34.930Z,9.30
2018-09-22T02:08:03.431Z,9.30
2018-09-22T02:10:31.923Z,9.30
2018-09-22T02:13:00.436Z,9.30
2018-09-22T02:15:28.917Z,9.30
2018-09-22T02:17:57.149Z,9.30
2018-09-22T02:20:25.556Z,9.30
2018-09-22T02:22:53.817Z,9.20
2018-09-22T02:25:22.113Z,9.20
2018-09-22T02:27:50.597Z,9.20
2018-09-22T02:30:19.009Z,9.20
2018-09-22T02:32:47.429Z,9.20
2018-09-22T02:35:15.829Z,9.20
2018-09-22T02:37:44.235Z,9.20
2018-09-22T02:40:12.721Z,9.10
2018-09-22T02:42:41.128Z,9.10
2018-09-22T02:45:09.488Z,9.10
2018-09-22T02:47:37.826Z,9.10
2018-09-22T02:50:06.534Z,9.10
2018-09-22T02:52:35.124Z,9.00
2018-09-22T02:55:03.436Z,9.00
2018-09-22T02:57:31.732Z,9.00
2018-09-22T03:00:00.000Z,9.00
2018-09-22T03:02:28.320Z,9.00
2018-09-22T03:04:56.844Z,8.90
2018-09-22T03:07:25.249Z,8.90
2018-09-22T03:09:53.641Z,8.90
2018-09-22T03:12:21.998Z,8.90
2018-09-22T03:14:50.306Z,8.80
2018-09-22T03:17:18.627Z,8.80
2018-09-22T03:19:47.023Z,8.80
2018-09-22T03:22:15.432Z,8.80
2018-09-22T03:24:43.713Z,8.80
2018-09-22T03:27:12.127Z,8.80
2018-09-22T03:29:40.621Z,8.80
2018-09-22T03:32:08.882Z,8.80
2018-09-22T03:34:37.308Z,8.80
2018-09-22T03:37:05.789Z,8.80
2018-09-22T03:39:34.236Z,8.80
2018-09-22T03:42:02.733Z,8.80
2018-09-22T03:44:31.253Z,8.80
2018-09-22T03:46:59.828Z,8.80
2018-09-22T03:49:28.230Z,8.80
2018-09-22T03:51:56.712Z,8.80
2018-09-22T03:54:25.216Z,8.80
2018-09-22T03:56:53.629Z,8.80
2018-09-22T03:59:22.065Z,8.80
2018-09-22T04:01:50.306Z,8.80
2018-09-22T04:04:18.605Z,8.80
2018-09-22T04:06:47.107Z,8.80
2018-09-22T04:09:15.530Z,8.70
2018-09-22T04:11:43.726Z,8.70
2018-09-22T04:14:15.273Z,8.70
2018-09-22T04:16:44.087Z,8.70
2018-09-22T04:19:12.344Z,8.60
2018-09-22T04:21:40.600Z,8.60
2018-09-22T04:24:15.290Z,8.60
2018-09-22T04:26:43.842Z,8.60
2018-09-22T04:29:12.085Z,8.60
2018-09-22T04:31:40.107Z,8.60
2018-09-22T04:34:08.621Z,8.50
2018-09-22T04:36:37.020Z,8.60
2018-09-22T04:39:06.404Z,8.50
2018-09-22T04:41:35.343Z,8.50
2018-09-22T04:44:03.844Z,8.50
2018-09-22T04:46:32.430Z,8.50
2018-09-22T04:49:01.066Z,8.50
2018-09-22T04:51:29.464Z,8.50
2018-09-22T04:53:58.074Z,8.50
2018-09-22T04:56:26.687Z,8.50
2018-09-22T04:58:55.651Z,8.50
2018-09-22T05:01:24.094Z,8.50
2018-09-22T05:03:52.289Z,8.50
2018-09-22T05:06:20.584Z,8.50
2018-09-22T05:08:48.991Z,8.50
2018-09-22T05:11:17.366Z,8.60
2018-09-22T05:13:45.865Z,8.60
2018-09-22T05:16:14.491Z,8.60
2018-09-22T05:18:43.005Z,8.60
2018-09-22T05:21:11.553Z,8.70
2018-09-22T05:23:39.885Z,8.80
2018-09-22T05:26:08.193Z,8.90
2018-09-22T05:28:36.715Z,9.10
2018-09-22T05:31:05.221Z,9.20
2018-09-22T05:33:33.671Z,9.30
2018-09-22T05:36:01.972Z,9.50
2018-09-22T05:38:30.239Z,9.60
2018-09-22T05:40:58.380Z,9.70
2018-09-22T05:43:28.078Z,9.90
2018-09-22T05:45:56.534Z,10.10
2018-09-22T05:48:25.115Z,10.20
2018-09-22T05:50:53.504Z,10.30
2018-09-22T05:53:22.705Z,10.20
2018-09-22T05:55:51.121Z,10.20
2018-09-22T05:58:19.538Z,10.20
2018-09-22T06:00:47.958Z,10.10
2018-09-22T06:03:16.285Z,10.10
2018-09-22T06:05:44.601Z,10.20
2018-09-22T06:08:13.139Z,10.20
2018-09-22T06:10:45.422Z,10.30
2018-09-22T06:13:13.907Z,10.40
2018-09-22T06:15:42.408Z,10.40
2018-09-22T06:18:16.244Z,10.60
2018-09-22T06:20:44.528Z,11.80
2018-09-22T06:23:12.993Z,12.50
2018-09-22T06:25:46.132Z,12.60
2018-09-22T06:28:14.353Z,12.60
2018-09-22T06:30:42.754Z,13.10
2018-09-22T06:33:11.347Z,13.80
2018-09-22T06:35:39.518Z,15.50
2018-09-22T06:38:08.038Z,17.70
2018-09-22T06:40:36.447Z,18.50
2018-09-22T06:43:04.670Z,18.60
2018-09-22T06:45:32.898Z,18.10
2018-09-22T06:48:01.207Z,17.40
2018-09-22T06:50:29.837Z,16.60
2018-09-22T06:52:58.244Z,15.80
2018-09-22T06:55:27.327Z,15.20
2018-09-22T06:57:55.955Z,14.50
2018-09-22T07:00:24.233Z,13.90
2018-09-22T07:02:52.534Z,13.30
2018-09-22T07:05:20.955Z,12.90
2018-09-22T07:07:49.722Z,12.70
2018-09-22T07:10:18.165Z,12.50
2018-09-22T07:12:46.774Z,12.30
2018-09-22T07:15:15.756Z,12.20
2018-09-22T07:17:44.104Z,12.10
2018-09-22T07:20:12.577Z,12.10
2018-09-22T07:22:46.370Z,12.10
2018-09-22T07:25:14.692Z,12.20
2018-09-22T07:27:42.900Z,12.30
2018-09-22T07:30:11.397Z,12.40
2018-09-22T07:32:39.788Z,12.60
2018-09-22T07:35:08.108Z,12.70
2018-09-22T07:37:36.479Z,12.70
2018-09-22T07:40:05.066Z,12.60
2018-09-22T07:42:33.585Z,12.50
2018-09-22T07:45:01.995Z,12.30
2018-09-22T07:47:30.493Z,12.10
2018-09-22T07:49:58.965Z,12.00
2018-09-22T07:52:27.573Z,11.90
2018-09-22T07:54:56.245Z,11.90
2018-09-22T07:57:24.837Z,11.90
2018-09-22T07:59:53.203Z,12.00
2018-09-22T08:02:21.385Z,12.10
2018-09-22T08:04:49.806Z,12.30
2018-09-22T08:07:18.699Z,12.50
2018-09-22T08:09:48.076Z,12.60
2018-09-22T08:12:16.405Z,12.60
2018-09-22T08:14:44.982Z,12.70
2018-09-22T08:17:13.229Z,12.70
2018-09-22T08:19:41.740Z,12.70
2018-09-22T08:22:10.145Z,12.90
2018-09-22T08:24:40.765Z,13.20
2018-09-22T08:27:09.187Z,13.50
2018-09-22T08:29:37.872Z,14.50
2018-09-22T08:32:06.399Z,15.30
2018-09-22T08:34:34.640Z,16.70
2018-09-22T08:37:03.054Z,18.70
2018-09-22T08:39:35.161Z,20.00
2018-09-22T08:42:03.878Z,19.90
2018-09-22T08:44:32.161Z,19.10
2018-09-22T08:47:00.687Z,18.70
2018-09-22T08:49:29.311Z,18.60
2018-09-22T08:52:02.901Z,18.20
2018-09-22T08:54:31.705Z,18.00
2018-09-22T08:57:00.101Z,17.90
2018-09-22T08:59:28.607Z,17.60
2018-09-22T09:01:56.997Z,17.20
2018-09-22T09:04:25.402Z,16.90
2018-09-22T09:06:56.550Z,16.60
2018-09-22T09:09:24.965Z,16.40
2018-09-22T09:11:53.350Z,16.40
2018-09-22T09:14:21.743Z,16.40
2018-09-22T09:16:50.056Z,16.40
2018-09-22T09:19:18.489Z,16.40
2018-09-22T09:21:46.855Z,16.20
2018-09-22T09:24:15.238Z,16.00
2018-09-22T09:26:44.564Z,15.80
2018-09-22T09:29:13.084Z,15.60
2018-09-22T09:31:41.594Z,15.70
2018-09-22T09:34:13.791Z,15.70
2018-09-22T09:36:42.160Z,15.70
2018-09-22T09:39:11.091Z,15.90
2018-09-22T09:41:41.602Z,16.00
2018-09-22T09:44:13.172Z,16.20
2018-09-22T09:46:41.597Z,16.20
2018-09-22T09:49:10.078Z,16.10
2018-09-22T09:51:38.379Z,15.90
2018-09-22T09:54:07.715Z,15.70
2018-09-22T09:56:41.248Z,15.50
2018-09-22T09:59:09.642Z,15.40
2018-09-22T10:01:37.914Z,15.30
2018-09-22T10:04:06.528Z,15.20
2018-09-22T10:06:38.108Z,15.10
2018-09-22T10:09:07.764Z,15.20
2018-09-22T10:11:36.252Z,15.30
2018-09-22T10:14:04.837Z,15.30
2018-09-22T10:16:33.214Z,15.30
2018-09-22T10:19:01.814Z,15.40
2018-09-22T10:21:30.171Z,15.50
2018-09-22T10:23:58.640Z,15.50
2018-09-22T10:26:27.254Z,15.40
2018-09-22T10:28:55.650Z,15.50
2018-09-22T10:31:23.938Z,15.50
2018-09-22T10:33:52.461Z,15.60
2018-09-22T10:36:20.857Z,15.70
2018-09-22T10:38:49.117Z,15.70
2018-09-22T10:41:17.548Z,15.80
2018-09-22T10:43:45.909Z,15.90
2018-09-22T10:46:14.362Z,15.90
2018-09-22T10:48:42.651Z,16.00
2018-09-22T10:51:11.271Z,16.00
2018-09-22T10:53:39.638Z,16.00
2018-09-22T10:56:08.121Z,16.00
2018-09-22T10:58:36.514Z,15.90
2018-09-22T11:01:04.952Z,15.90
2018-09-22T11:03:33.325Z,15.90
2018-09-22T11:06:02.498Z,15.70
2018-09-22T11:08:30.861Z,15.70
2018-09-22T11:10:59.246Z,15.80
2018-09-22T11:13:27.670Z,15.90
2018-09-22T11:15:56.988Z,16.00
2018-09-22T11:18:25.385Z,16.00
2018-09-22T11:20:53.993Z,16.00
2018-09-22T11:23:22.277Z,16.00
2018-09-22T11:25:50.743Z,16.00
2018-09-22T11:28:19.067Z,16.00
2018-09-22T11:30:47.603Z,16.00
2018-09-22T11:33:16.588Z,16.00
2018-09-22T11:35:45.221Z,16.00
2018-09-22T11:38:13.765Z,16.00
2018-09-22T11:40:42.423Z,16.00
2018-09-22T11:43:10.906Z,16.10
2018-09-22T11:45:39.171Z,16.20
2018-09-22T11:48:08.016Z,16.20
2018-09-22T11:50:36.326Z,16.30
2018-09-22T11:53:05.167Z,16.60
2018-09-22T11:55:33.504Z,16.80
2018-09-22T11:58:01.831Z,17.10
2018-09-22T12:00:30.225Z,17.30
2018-09-22T12:02:58.616Z,17.40
2018-09-22T12:05:26.892Z,17.50
2018-09-22T12:07:55.418Z,17.50
2018-09-22T12:10:24.012Z,17.40
2018-09-22T12:12:52.423Z,17.40
2018-09-22T12:15:21.017Z,17.40
2018-09-22T12:17:49.396Z,17.50
2018-09-22T12:20:17.849Z,17.50
2018-09-22T12:22:47.033Z,17.40
2018-09-22T12:25:16.392Z,17.30
2018-09-22T12:27:45.420Z,17.20
2018-09-22T12:30:13.985Z,17.20
2018-09-22T12:32:42.377Z,17.30
2018-09-22T12:35:10.751Z,17.40
2018-09-22T12:37:39.881Z,17.50
2018-09-22T12:40:08.462Z,17.60
2018-09-22T12:42:36.997Z,17.60
2018-09-22T12:45:05.284Z,17.60
2018-09-22T12:47:33.818Z,17.60
2018-09-22T12:50:02.081Z,17.60
2018-09-22T12:52:30.382Z,17.60
2018-09-22T12:54:58.494Z,17.60
2018-09-22T12:57:26.990Z,17.60
2018-09-22T12:59:55.988Z,17.40
2018-09-22T13:02:24.384Z,17.20
2018-09-22T13:04:53.005Z,17.00
2018-09-22T13:07:21.337Z,16.90
2018-09-22T13:09:49.771Z,16.80
2018-09-22T13:12:18.220Z,16.70
2018-09-22T13:14:46.923Z,16.70
2018-09-22T13:17:15.311Z,16.70
2018-09-22T13:19:44.123Z,16.80
2018-09-22T13:22:12.597Z,16.80
2018-09-22T13:24:41.122Z,16.90
2018-09-22T13:27:09.425Z,16.90
2018-09-22T13:29:38.940Z,16.80
2018-09-22T13:32:07.362Z,16.80
2018-09-22T13:34:35.846Z,16.90
2018-09-22T13:37:04.736Z,16.90
2018-09-22T13:39:34.189Z,17.00
2018-09-22T13:42:02.502Z,17.00
2018-09-22T13:44:30.864Z,17.10
2018-09-22T13:46:59.473Z,17.10
2018-09-22T13:49:28.256Z,17.10
2018-09-22T13:51:56.568Z,17.20
2018-09-22T13:54:26.112Z,17.20
2018-09-22T13:56:54.370Z,17.10
2018-09-22T13:59:22.540Z,17.00
2018-09-22T14:01:51.106Z,16.90
2018-09-22T14:04:20.426Z,16.90
2018-09-22T14:06:48.914Z,16.80
2018-09-22T14:09:17.323Z,16.70
2018-09-22T14:11:45.725Z,16.70
2018-09-22T14:14:14.123Z,16.60
2018-09-22T14:16:42.527Z,16.50
2018-09-22T14:19:10.951Z,16.50
2018-09-22T14:21:39.532Z,16.60
2018-09-22T14:24:08.181Z,16.60
2018-09-22T14:26:36.535Z,16.50
2018-09-22T14:29:05.035Z,16.50
2018-09-22T14:31:33.344Z,16.40
2018-09-22T14:34:01.522Z,16.40
2018-09-22T14:36:29.948Z,16.50
2018-09-22T14:38:58.430Z,16.60
2018-09-22T14:41:26.858Z,16.60
2018-09-22T14:43:55.126Z,16.50
2018-09-22T14:46:23.410Z,16.50
2018-09-22T14:48:51.799Z,16.50
2018-09-22T14:51:20.272Z,16.50
2018-09-22T14:53:48.730Z,16.30
2018-09-22T14:56:17.140Z,16.20
2018-09-22T14:58:45.686Z,16.00
2018-09-22T15:01:14.036Z,15.90
2018-09-22T15:03:42.632Z,15.90
2018-09-22T15:06:11.144Z,15.70
2018-09-22T15:08:39.408Z,15.60
2018-09-22T15:11:08.176Z,15.50
2018-09-22T15:13:36.633Z,15.40
2018-09-22T15:16:05.145Z,15.40
2018-09-22T15:18:33.647Z,15.30
2018-09-22T15:21:02.155Z,15.20
2018-09-22T15:23:30.540Z,15.10
2018-09-22T15:25:58.979Z,15.10
2018-09-22T15:28:27.343Z,15.00
2018-09-22T15:30:55.736Z,14.90
2018-09-22T15:33:24.249Z,14.90
2018-09-22T15:35:52.746Z,14.80
2018-09-22T15:38:21.420Z,14.80
2018-09-22T15:40:49.733Z,14.80
2018-09-22T15:43:18.087Z,14.80
2018-09-22T15:45:46.346Z,14.70
2018-09-22T15:48:15.903Z,14.70
2018-09-22T15:50:44.417Z,14.70
2018-09-22T15:53:13.102Z,14.60
2018-09-22T15:55:41.356Z,14.60
2018-09-22T15:58:09.768Z,14.60
2018-09-22T16:00:38.264Z,14.60
2018-09-22T16:03:06.504Z,14.60
2018-09-22T16:05:34.881Z,14.60
2018-09-22T16:08:03.709Z,14.60
2018-09-22T16:10:31.959Z,14.60
2018-09-22T16:13:00.266Z,14.60
2018-09-22T16:15:28.717Z,14.60
2018-09-22T16:17:56.915Z,14.50
2018-09-22T16:20:25.506Z,14.50
2018-09-22T16:22:54.079Z,14.40
2018-09-22T16:25:22.467Z,14.40
2018-09-22T16:27:50.891Z,14.40
2018-09-22T16:30:19.366Z,14.40
2018-09-22T16:32:47.899Z,14.30
2018-09-22T16:35:16.181Z,14.30
2018-09-22T16:37:44.490Z,14.20
2018-09-22T16:40:13.078Z,14.10
2018-09-22T16:42:41.339Z,14.10
2018-09-22T16:45:09.765Z,14.00
2018-09-22T16:47:38.233Z,14.00
2018-09-22T16:50:06.706Z,13.90
2018-09-22T16:52:36.203Z,13.90
2018-09-22T16:55:04.487Z,13.80
2018-09-22T16:57:32.899Z,13.80
2018-09-22T17:00:07.430Z,13.70
2018-09-22T17:02:35.839Z,13.70
2018-09-22T17:05:04.215Z,13.60
2018-09-22T17:07:42.454Z,13.60
2018-09-22T17:10:11.808Z,13.50
2018-09-22T17:12:40.193Z,13.50
2018-09-22T17:15:08.689Z,13.40
2018-09-22T17:17:37.366Z,13.30
2018-09-22T17:20:05.888Z,13.30
2018-09-22T17:22:34.510Z,13.20
2018-09-22T17:25:03.093Z,13.20
2018-09-22T17:27:33.866Z,13.20
2018-09-22T17:30:02.239Z,13.10
2018-09-22T17:32:30.744Z,13.10
2018-09-22T17:34:58.944Z,13.10
2018-09-22T17:37:28.056Z,13.20
2018-09-22T17:39:56.564Z,13.10
2018-09-22T17:42:25.057Z,13.20
2018-09-22T17:44:53.564Z,13.20
2018-09-22T17:47:22.167Z,13.20
2018-09-22T17:49:50.589Z,13.20
2018-09-22T17:52:18.975Z,13.20
2018-09-22T17:54:47.277Z,13.10
2018-09-22T17:57:15.661Z,13.10
2018-09-22T17:59:43.957Z,13.00
2018-09-22T18:02:12.267Z,13.00
2018-09-22T18:04:40.515Z,12.90
2018-09-22T18:07:08.887Z,12.90
2018-09-22T18:09:37.149Z,12.90
2018-09-22T18:12:05.330Z,12.90
2018-09-22T18:14:33.747Z,12.80
2018-09-22T18:17:02.237Z,12.80
2018-09-22T18:19:30.563Z,12.80
2018-09-22T18:21:59.051Z,12.80
2018-09-22T18:24:28.100Z,12.70
2018-09-22T18:26:56.226Z,12.70
2018-09-22T18:29:24.859Z,12.70
2018-09-22T18:31:53.242Z,12.70
2018-09-22T18:34:21.752Z,12.70
2018-09-22T18:36:50.150Z,12.60
2018-09-22T18:39:18.670Z,12.60
2018-09-22T18:41:47.069Z,12.60
2018-09-22T18:44:15.563Z,12.60
2018-09-22T18:46:44.891Z,12.60
2018-09-22T18:49:13.289Z,12.60
2018-09-22T18:51:41.795Z,12.60
2018-09-22T18:54:10.399Z,12.60
2018-09-22T18:56:38.698Z,12.60
2018-09-22T18:59:07.841Z,12.60
2018-09-22T19:01:36.075Z,12.60
2018-09-22T19:04:04.684Z,12.50
2018-09-22T19:06:33.860Z,12.60
2018-09-22T19:09:02.304Z,12.50
2018-09-22T19:11:30.732Z,12.50
2018-09-22T19:14:04.337Z,12.50
2018-09-22T19:16:38.252Z,12.50
2018-09-22T19:20:10.068Z,12.50
2018-09-22T19:22:46.853Z,12.50
2018-09-22T19:25:17.656Z,12.40
2018-09-22T19:27:52.250Z,12.40
2018-09-22T19:30:25.760Z,12.40
2018-09-22T19:33:00.709Z,12.30
2018-09-22T19:35:32.283Z,12.30
2018-09-22T19:38:08.220Z,12.30
2018-09-22T19:40:41.835Z,12.20
2018-09-22T19:43:15.567Z,12.20
2018-09-22T19:45:47.654Z,12.20
2018-09-22T19:48:52.177Z,12.20
2018-09-22T19:51:22.613Z,12.20
2018-09-22T19:53:51.970Z,12.30
2018-09-22T19:56:20.427Z,12.20
2018-09-22T19:58:48.633Z,12.20
2018-09-22T20:01:16.804Z,12.20
2018-09-22T20:03:45.200Z,12.20
2018-09-22T20:06:13.621Z,12.20
2018-09-22T20:08:41.900Z,12.20
2018-09-22T20:11:10.492Z,12.20
2018-09-22T20:13:39.711Z,12.20
2018-09-22T20:16:33.580Z,12.20
2018-09-22T20:19:02.203Z,12.20
2018-09-22T20:21:30.695Z,12.20
2018-09-22T20:23:59.100Z,12.30
2018-09-22T20:26:27.316Z,12.30
2018-09-22T20:28:55.809Z,12.30
2018-09-22T20:31:24.330Z,12.30
2018-09-22T20:33:52.909Z,12.30
2018-09-22T20:36:21.304Z,12.20
2018-09-22T20:38:49.731Z,12.20
2018-09-22T20:41:18.110Z,12.20
2018-09-22T20:43:46.695Z,12.20
2018-09-22T20:46:15.635Z,12.20
2018-09-22T20:48:44.006Z,12.10
2018-09-22T20:51:12.590Z,12.10
2018-09-22T20:53:41.053Z,12.10
2018-09-22T20:56:09.434Z,12.10
2018-09-22T20:58:37.842Z,12.10
2018-09-22T21:01:06.204Z,12.00
2018-09-22T21:03:34.628Z,12.00
2018-09-22T21:06:03.131Z,12.00
2018-09-22T21:08:31.632Z,12.00
2018-09-22T21:11:00.224Z,11.90
2018-09-22T21:13:28.548Z,11.90
2018-09-22T21:15:56.932Z,12.00
2018-09-22T21:18:25.510Z,11.90
2018-09-22T21:20:53.902Z,11.90
2018-09-22T21:23:22.339Z,11.90
2018-09-22T21:25:50.715Z,11.90
2018-09-22T21:28:19.275Z,11.90
2018-09-22T21:30:47.657Z,11.90
2018-09-22T21:33:16.119Z,11.90
2018-09-22T21:35:44.718Z,11.90
2018-09-22T21:38:12.876Z,11.90
2018-09-22T21:40:41.233Z,11.90
2018-09-22T21:43:09.621Z,11.90
2018-09-22T21:45:37.907Z,11.90
2018-09-22T21:48:06.332Z,11.90
2018-09-22T21:50:34.640Z,11.90
2018-09-22T21:53:03.138Z,11.80
2018-09-22T21:55:32.381Z,11.80
2018-09-22T21:58:00.748Z,11.80
2018-09-22T22:00:29.342Z,11.80
2018-09-22T22:02:57.856Z,11.80
2018-09-22T22:05:26.355Z,11.80
2018-09-22T22:07:54.743Z,11.80
2018-09-22T22:10:23.185Z,11.80
2018-09-22T22:12:51.439Z,11.80
2018-09-22T22:15:19.759Z,11.80
2018-09-22T22:17:48.141Z,11.80
2018-09-22T22:20:17.143Z,11.80
2018-09-22T22:22:45.463Z,11.80
2018-09-22T22:25:14.781Z,11.80
2018-09-22T22:27:43.209Z,11.70
2018-09-22T22:30:11.882Z,11.80
2018-09-22T22:32:47.857Z,11.70
2018-09-22T22:35:15.913Z,11.70
2018-09-22T22:37:44.449Z,11.70
2018-09-22T22:40:12.908Z,11.70
2018-09-22T22:42:44.838Z,11.70
2018-09-22T22:45:13.330Z,11.80
2018-09-22T22:47:41.823Z,11.70
2018-09-22T22:50:10.536Z,11.70
2018-09-22T22:52:38.823Z,11.80
2018-09-22T22:55:07.120Z,11.80
2018-09-22T22:57:35.633Z,11.80
2018-09-22T23:00:09.156Z,11.80
2018-09-22T23:02:37.451Z,11.80
2018-09-22T23:05:05.949Z,11.80
2018-09-22T23:07:34.341Z,11.80
2018-09-22T23:10:09.381Z,11.80
2018-09-22T23:12:37.795Z,11.70
2018-09-22T23:15:06.395Z,11.70
2018-09-22T23:17:40.123Z,11.70
2018-09-22T23:20:08.507Z,11.70
2018-09-22T23:22:37.093Z,11.70
2018-09-22T23:25:19.939Z,11.70
2018-09-22T23:27:48.321Z,11.70
2018-09-22T23:30:16.653Z,11.70
2018-09-22T23:32:55.876Z,11.60
2018-09-22T23:35:24.271Z,11.60
2018-09-22T23:37:52.702Z,11.50
2018-09-22T23:40:21.991Z,11.40
2018-09-22T23:42:50.159Z,11.30
2018-09-22T23:45:18.506Z,11.20
2018-09-22T23:47:46.978Z,11.20
2018-09-22T23:50:15.381Z,11.20
2018-09-22T23:52:43.671Z,11.10
2018-09-22T23:55:12.173Z,11.10
2018-09-22T23:57:40.590Z,11.10
